Time;durP1;ratioP1;P1;durP2;ratioP2;P2;SDS_P1;SDS_P2;PMS_P1;PMS_P2;Temp;Humidity;BMP_temperature;BMP_pressure;BME280_temperature;BME280_humidity;BME280_pressure;Samples;Min_cycle;Max_cycle;Signal;HPM_P1;HPM_P2
2022/03/22 00:02:19;;;;;;;107.82;45.92;;;;;;;3.87;46.42;101694.53;4934878;29;20043;-79
2022/03/22 00:04:45;;;;;;;107.28;45.55;;;;;;;3.87;46.42;101696.25;4935087;29;20066;-79
2022/03/22 00:07:10;;;;;;;133.45;56.17;;;;;;;3.84;46.31;101691.94;4934798;29;20171;-79
2022/03/22 00:09:36;;;;;;;100.95;45.45;;;;;;;3.91;46.24;101690.28;4934988;29;20387;-79
2022/03/22 00:12:02;;;;;;;68.43;36.72;;;;;;;3.97;45.97;101706.72;4934650;29;20036;-79
2022/03/22 00:14:27;;;;;;;75.20;38.22;;;;;;;3.89;45.95;101687.72;4936272;29;20055;-79
2022/03/22 00:16:53;;;;;;;72.95;36.75;;;;;;;3.98;45.50;101707.59;4936196;29;20384;-79
2022/03/22 00:19:19;;;;;;;76.57;38.53;;;;;;;3.99;45.38;101709.31;4934436;29;20118;-79
2022/03/22 00:21:46;;;;;;;86.90;44.38;;;;;;;4.04;45.59;101711.94;4935890;29;20456;-79
2022/03/22 00:24:11;;;;;;;92.80;45.75;;;;;;;3.99;45.42;101701.56;4934460;29;20028;-79
2022/03/22 00:26:37;;;;;;;90.38;45.38;;;;;;;4.00;45.58;101711.03;4934618;29;20019;-79
2022/03/22 00:29:03;;;;;;;117.18;51.85;;;;;;;3.93;45.72;101701.50;4934245;29;20036;-79
2022/03/22 00:31:29;;;;;;;190.70;73.13;;;;;;;3.89;45.87;101695.44;4934675;28;20039;-79
2022/03/22 00:33:54;;;;;;;125.55;53.05;;;;;;;3.76;45.96;101678.06;4934575;29;20032;-79
2022/03/22 00:36:20;;;;;;;139.40;57.97;;;;;;;3.93;45.94;101706.66;4934210;29;20132;-79
2022/03/22 00:38:45;;;;;;;155.93;68.10;;;;;;;3.85;46.30;101696.25;4934381;29;20035;-79
2022/03/22 00:41:13;;;;;;;308.30;126.55;;;;;;;3.80;46.65;101702.19;4935315;29;20144;-79
2022/03/22 00:43:39;;;;;;;309.00;124.50;;;;;;;3.75;46.96;101703.00;4933750;29;20408;-79
2022/03/22 00:46:04;;;;;;;370.23;135.30;;;;;;;3.74;46.71;101703.81;4933849;29;20032;-78
2022/03/22 00:48:30;;;;;;;336.27;124.47;;;;;;;3.72;46.63;101695.19;4934297;29;20527;-79
2022/03/22 00:50:56;;;;;;;259.60;105.65;;;;;;;3.63;46.86;101697.66;4934282;29;20043;-80
2022/03/22 00:53:21;;;;;;;183.45;77.38;;;;;;;3.47;47.66;101678.53;4934000;28;20035;-79
2022/03/22 00:55:48;;;;;;;234.18;91.30;;;;;;;3.55;47.63;101694.09;4935442;29;20023;-79
2022/03/22 00:58:14;;;;;;;290.45;121.35;;;;;;;3.46;47.46;101684.53;4933690;28;20027;-79
2022/03/22 01:00:39;;;;;;;203.90;88.68;;;;;;;3.54;47.30;101701.78;4934244;29;20472;-79
2022/03/22 01:03:07;;;;;;;217.07;92.38;;;;;;;3.46;47.72;101692.25;4935248;29;20036;-80
2022/03/22 01:05:34;;;;;;;206.98;91.68;;;;;;;3.38;48.05;101678.38;4935343;29;20028;-79
2022/03/22 01:08:11;;;;;;;186.77;87.65;;;;;;;3.39;47.47;101685.25;4933972;28;20032;-79
2022/03/22 01:10:39;;;;;;;173.70;83.47;;;;;;;3.37;47.78;101686.97;4935090;29;20148;-78
2022/03/22 01:13:06;;;;;;;144.00;66.93;;;;;;;3.34;47.81;101686.03;4934797;29;20055;-79
2022/03/22 01:15:33;;;;;;;110.55;53.97;;;;;;;3.30;48.02;101674.81;4935227;29;20038;-79
2022/03/22 01:18:04;;;;;;;105.63;52.17;;;;;;;3.30;48.59;101685.13;4935130;29;20046;-79
2022/03/22 01:20:31;;;;;;;134.60;63.38;;;;;;;3.24;48.64;101675.59;4933590;29;20035;-79
2022/03/22 01:22:57;;;;;;;125.65;61.03;;;;;;;3.23;48.38;101675.56;4933608;29;20031;-79
2022/03/22 01:25:25;;;;;;;123.50;63.45;;;;;;;3.25;48.00;101681.63;4933263;29;20432;-79
2022/03/22 01:27:51;;;;;;;118.57;60.65;;;;;;;3.23;48.65;101679.00;4934963;29;20027;-79
2022/03/22 01:30:22;;;;;;;198.93;107.20;;;;;;;3.15;47.79;101669.41;4934572;29;20392;-79
2022/03/22 01:32:52;;;;;;;262.65;130.55;;;;;;;3.07;48.14;101658.13;4933634;29;20389;-79
2022/03/22 01:35:18;;;;;;;279.65;136.25;;;;;;;3.11;48.16;101673.66;4934589;29;20035;-79
2022/03/22 01:37:47;;;;;;;246.40;116.20;;;;;;;3.05;48.72;101667.56;4951124;28;20039;-78
2022/03/22 01:40:13;;;;;;;228.52;105.43;;;;;;;3.01;49.10;101658.91;4951123;29;20074;-79
2022/03/22 01:42:39;;;;;;;210.93;98.05;;;;;;;2.93;49.01;101655.34;4935267;29;20043;-79
2022/03/22 01:45:07;;;;;;;186.98;85.32;;;;;;;2.92;49.76;101653.63;4935397;28;20035;-79
2022/03/22 01:47:35;;;;;;;140.93;69.82;;;;;;;2.83;49.84;101641.47;4935271;28;20046;-79
2022/03/22 01:50:01;;;;;;;130.98;64.53;;;;;;;2.88;50.17;101655.25;4935307;29;20480;-79
2022/03/22 01:52:27;;;;;;;98.25;49.83;;;;;;;2.82;50.17;101652.56;4934887;29;20454;-79
2022/03/22 01:54:55;;;;;;;110.35;55.38;;;;;;;2.81;50.47;101658.56;4935272;28;20038;-79
2022/03/22 01:57:24;;;;;;;90.53;46.00;;;;;;;2.75;50.05;101648.19;4938692;29;20101;-79
2022/03/22 01:59:50;;;;;;;115.18;58.50;;;;;;;2.69;50.95;101645.47;4939168;29;20035;-79
2022/03/22 02:07:46;;;;;;;70.38;37.35;;;;;;;2.56;50.97;101643.53;4953861;29;20398;-79
2022/03/22 02:10:12;;;;;;;68.57;38.72;;;;;;;2.49;51.58;101650.28;4938257;29;20491;-79
2022/03/22 02:12:37;;;;;;;64.38;37.53;;;;;;;2.46;52.16;101645.09;4938309;29;20035;-79
2022/03/22 02:15:03;;;;;;;68.15;37.88;;;;;;;2.39;52.37;101638.94;4938347;29;20457;-79
2022/03/22 02:17:29;;;;;;;67.18;36.88;;;;;;;2.26;52.49;101626.69;4936687;28;20106;-79
2022/03/22 02:19:55;;;;;;;68.93;38.40;;;;;;;2.32;52.97;101641.38;4937016;29;20035;-79
2022/03/22 02:22:28;;;;;;;62.85;37.83;;;;;;;2.31;52.93;101639.63;4937911;29;20039;-79
2022/03/22 02:24:54;;;;;;;66.68;36.83;;;;;;;2.18;53.38;101621.41;4938136;29;20020;-79
2022/03/22 02:27:21;;;;;;;59.40;35.03;;;;;;;2.18;52.98;101625.69;4936391;29;20635;-79
2022/03/22 02:29:46;;;;;;;58.10;33.65;;;;;;;2.18;54.12;101633.41;4937944;29;20036;-79
2022/03/22 02:32:12;;;;;;;63.58;35.03;;;;;;;2.10;54.20;101617.81;4936652;29;20484;-79
2022/03/22 02:34:37;;;;;;;57.55;34.10;;;;;;;2.15;54.05;101630.75;4936784;29;20039;-79
2022/03/22 02:37:04;;;;;;;67.78;37.30;;;;;;;2.12;54.40;101639.28;4936733;29;20099;-79
2022/03/22 02:39:31;;;;;;;69.78;37.20;;;;;;;2.12;53.77;101635.84;4936409;29;20034;-79
2022/03/22 02:41:57;;;;;;;61.70;34.33;;;;;;;2.07;53.48;101627.19;4936527;29;20372;-79
2022/03/22 02:44:23;;;;;;;65.47;36.50;;;;;;;2.14;53.48;101635.03;4936089;29;20051;-79
2022/03/22 02:46:48;;;;;;;56.05;33.97;;;;;;;2.07;53.60;101622.06;4937838;29;20039;-79
2022/03/22 02:49:14;;;;;;;59.00;34.50;;;;;;;2.14;53.81;101641.88;4937443;29;20028;-79
2022/03/22 02:51:40;;;;;;;65.10;34.38;;;;;;;2.10;54.26;101640.94;4937987;29;20043;-79
2022/03/22 02:54:06;;;;;;;57.35;34.17;;;;;;;2.05;54.32;101637.44;4936373;29;20122;-79
2022/03/22 02:56:32;;;;;;;58.97;32.97;;;;;;;2.08;54.53;101631.50;4936127;29;20036;-79
2022/03/22 02:58:59;;;;;;;53.65;32.38;;;;;;;2.08;54.32;101642.63;4936048;29;20024;-79
2022/03/22 03:01:24;;;;;;;58.22;33.60;;;;;;;1.99;54.51;101633.03;4937107;29;20119;-79
2022/03/22 03:03:49;;;;;;;58.53;33.85;;;;;;;2.09;54.10;101644.38;4936237;28;20034;-79
2022/03/22 03:06:16;;;;;;;63.35;34.58;;;;;;;2.11;53.74;101647.00;4935966;29;20032;-80
2022/03/22 03:08:42;;;;;;;62.53;33.63;;;;;;;2.11;54.21;101642.72;4935309;29;20087;-80
2022/03/22 03:11:08;;;;;;;59.97;33.83;;;;;;;2.12;53.82;101654.72;4937346;29;20028;-79
2022/03/22 03:16:18;;;;;;;65.70;34.75;;;;;;;2.15;52.81;101636.78;4936944;29;20104;-79
2022/03/22 03:18:44;;;;;;;58.35;35.38;;;;;;;2.19;52.11;101638.59;4936000;28;20032;-79
2022/03/22 03:21:09;;;;;;;58.28;34.97;;;;;;;2.16;52.35;101637.66;4935789;29;20082;-79
2022/03/22 03:23:35;;;;;;;68.28;36.35;;;;;;;2.23;52.52;101649.78;4936979;29;20035;-79
2022/03/22 03:26:00;;;;;;;61.88;36.28;;;;;;;2.16;52.48;101641.09;4935704;28;20024;-79
2022/03/22 03:28:25;;;;;;;59.92;34.67;;;;;;;2.27;52.42;101660.97;4936976;29;20035;-79
2022/03/22 03:30:51;;;;;;;66.05;35.63;;;;;;;2.22;52.19;101648.91;4936075;28;20066;-79
2022/03/22 03:33:16;;;;;;;58.08;32.15;;;;;;;2.29;52.02;101659.31;4935460;29;20075;-79
2022/03/22 03:35:42;;;;;;;59.65;33.00;;;;;;;2.22;52.36;101637.75;4936859;29;20027;-79
2022/03/22 03:38:07;;;;;;;56.33;30.48;;;;;;;2.28;51.73;101650.75;4937110;29;20031;-79
2022/03/22 03:43:17;;;;;;;54.42;32.75;;;;;;;2.22;52.09;101645.47;4936386;29;20444;-79
2022/03/22 03:48:26;;;;;;;57.90;32.38;;;;;;;2.24;51.89;101654.09;4936637;29;20115;-79
2022/03/22 03:50:51;;;;;;;59.58;34.47;;;;;;;2.20;52.42;101649.72;4935334;28;20102;-79
2022/03/22 03:53:17;;;;;;;59.15;35.28;;;;;;;2.12;52.92;101648.72;4934861;29;20043;-79
2022/03/22 03:55:42;;;;;;;57.70;32.22;;;;;;;2.16;52.76;101650.50;4936620;29;20032;-79
2022/03/22 03:58:08;;;;;;;62.35;33.58;;;;;;;2.15;52.78;101653.91;4936426;29;20460;-79
2022/03/22 04:00:33;;;;;;;60.20;32.97;;;;;;;2.17;52.37;101657.38;4936302;29;20562;-79
2022/03/22 04:02:58;;;;;;;55.90;31.25;;;;;;;2.13;51.95;101637.59;4935069;29;20028;-79
2022/03/22 04:05:24;;;;;;;59.15;31.83;;;;;;;2.23;51.72;101660.06;4934845;29;20110;-79
2022/03/22 04:07:49;;;;;;;59.00;31.45;;;;;;;2.22;51.28;101648.03;4936124;29;20036;-79
2022/03/22 04:10:14;;;;;;;55.53;31.80;;;;;;;2.17;51.57;101649.66;4934921;29;20038;-79
2022/03/22 04:12:44;;;;;;;61.17;32.30;;;;;;;2.27;51.67;101667.00;4936119;29;20032;-79
2022/03/22 04:15:10;;;;;;;56.00;32.83;;;;;;;2.27;51.08;101648.13;4934897;29;20035;-79
2022/03/22 04:17:36;;;;;;;57.90;32.47;;;;;;;2.29;50.85;101651.63;4952389;29;20043;-79
2022/03/22 04:20:02;;;;;;;54.13;31.35;;;;;;;2.33;50.95;101653.41;4952887;28;20602;-79
2022/03/22 04:22:28;;;;;;;53.53;30.67;;;;;;;2.33;50.89;101654.28;4952132;29;20129;-79
2022/03/22 04:24:53;;;;;;;57.45;32.63;;;;;;;2.27;51.34;101643.84;4952540;29;20122;-79
2022/03/22 04:33:00;;;;;;;57.85;32.78;;;;;;;2.31;50.69;101643.06;4914336;29;20044;-79
2022/03/22 04:35:27;;;;;;;60.35;31.90;;;;;;;2.34;50.76;101648.28;4914142;29;20135;-79
2022/03/22 04:37:53;;;;;;;68.38;34.97;;;;;;;2.40;50.43;101660.38;4914353;29;20048;-79
2022/03/22 04:40:20;;;;;;;54.13;32.47;;;;;;;2.37;51.06;101652.63;4914179;29;20071;-79
2022/03/22 04:42:52;;;;;;;54.75;31.75;;;;;;;2.40;51.02;101668.09;4914228;29;20213;-78
2022/03/22 04:45:18;;;;;;;61.45;33.47;;;;;;;2.42;50.68;101666.44;4914186;29;20500;-79
2022/03/22 04:47:45;;;;;;;59.75;32.17;;;;;;;2.42;50.75;101669.00;4911373;29;20047;-79
2022/03/22 04:50:11;;;;;;;57.00;30.77;;;;;;;2.44;51.01;101677.59;4895216;29;20037;-79
2022/03/22 04:58:04;;;;;;;62.47;33.30;;;;;;;2.33;50.89;101661.13;4895404;29;20077;-79
2022/03/22 05:00:30;;;;;;;58.47;33.15;;;;;;;2.44;51.12;101683.63;4894760;29;20470;-79
2022/03/22 05:02:56;;;;;;;65.53;34.10;;;;;;;2.37;51.71;101668.06;4894878;29;20568;-79
2022/03/22 05:08:07;;;;;;;64.50;37.38;;;;;;;2.44;51.10;101677.59;4905841;29;20067;-79
2022/03/22 05:10:34;;;;;;;72.38;39.53;;;;;;;2.49;51.19;101679.44;4932491;29;20496;-79
2022/03/22 05:12:59;;;;;;;84.22;49.00;;;;;;;2.50;50.78;101683.75;4932476;29;20067;-79
2022/03/22 05:15:25;;;;;;;91.45;54.88;;;;;;;2.57;50.98;101682.16;4932764;29;20154;-79
2022/03/22 05:17:51;;;;;;;94.18;53.38;;;;;;;2.66;51.36;101681.47;4932818;29;20488;-79
2022/03/22 05:20:17;;;;;;;77.85;42.75;;;;;;;2.76;50.54;101678.22;4916730;29;20083;-78
2022/03/22 05:22:43;;;;;;;88.07;47.83;;;;;;;2.93;50.66;101669.06;4932435;29;20095;-79
2022/03/22 05:25:09;;;;;;;79.18;42.00;;;;;;;3.34;49.55;101683.47;4932424;29;20051;-79
2022/03/22 05:27:37;;;;;;;71.00;39.50;;;;;;;3.61;48.81;101654.66;4932359;29;20086;-79
2022/03/22 05:30:03;;;;;;;75.13;39.70;;;;;;;4.19;47.68;101666.59;4931949;29;20087;-79
2022/03/22 05:32:28;;;;;;;72.97;39.67;;;;;;;4.80;46.36;101681.84;4932138;29;20095;-79
2022/03/22 05:34:54;;;;;;;73.38;39.22;;;;;;;5.32;45.08;101673.69;4932417;29;20444;-79
2022/03/22 05:37:21;;;;;;;69.80;40.17;;;;;;;5.61;44.10;101679.94;4932278;29;20071;-79
2022/03/22 05:39:46;;;;;;;70.03;39.78;;;;;;;5.92;44.11;101672.38;4932355;29;20491;-79
2022/03/22 05:42:13;;;;;;;75.65;42.17;;;;;;;6.29;42.84;101672.53;4916276;29;20117;-79
2022/03/22 05:44:39;;;;;;;76.43;43.28;;;;;;;6.90;41.00;101672.63;4932654;29;20040;-79
2022/03/22 05:47:06;;;;;;;81.15;43.03;;;;;;;7.79;39.71;101657.84;4934724;29;20083;-79
2022/03/22 05:49:33;;;;;;;81.28;44.88;;;;;;;8.69;37.54;101672.19;4933195;29;20031;-79
2022/03/22 05:52:01;;;;;;;77.13;43.90;;;;;;;8.70;37.06;101668.72;4933247;28;20042;-79
2022/03/22 05:54:26;;;;;;;79.28;45.58;;;;;;;8.58;37.18;101674.84;4934897;29;20039;-79
2022/03/22 05:56:52;;;;;;;79.68;43.90;;;;;;;8.63;36.81;101680.84;4933430;29;20036;-79
2022/03/22 05:59:17;;;;;;;77.38;46.83;;;;;;;8.89;36.47;101664.22;4933286;29;20060;-79
2022/03/22 06:01:46;;;;;;;72.95;43.08;;;;;;;9.97;34.98;101659.72;4932877;29;20489;-80
2022/03/22 06:04:11;;;;;;;70.63;42.10;;;;;;;10.74;33.51;101656.97;4934467;29;20035;-79
2022/03/22 06:06:37;;;;;;;77.47;43.05;;;;;;;10.45;33.06;101676.50;4932853;29;20421;-79
2022/03/22 06:09:03;;;;;;;82.00;44.70;;;;;;;10.00;33.46;101668.34;4934411;29;20043;-79
2022/03/22 06:11:35;;;;;;;77.65;45.70;;;;;;;10.05;33.67;101678.72;4934357;29;20043;-80
2022/03/22 06:14:04;;;;;;;76.07;44.95;;;;;;;10.84;32.86;101673.34;4932894;29;20091;-81
2022/03/22 06:16:30;;;;;;;74.57;43.33;;;;;;;12.02;31.11;101677.34;4932932;29;20024;-80
2022/03/22 06:18:56;;;;;;;74.60;43.25;;;;;;;11.87;30.99;101675.03;4933053;28;20036;-80
2022/03/22 06:21:22;;;;;;;75.97;43.22;;;;;;;11.48;31.21;101672.25;4934300;29;20032;-80
2022/03/22 06:23:48;;;;;;;75.25;44.13;;;;;;;11.43;31.36;101677.56;4934460;29;20473;-80
2022/03/22 06:26:14;;;;;;;72.82;43.63;;;;;;;12.29;31.26;101680.28;4933068;29;20115;-80
2022/03/22 06:28:40;;;;;;;74.60;45.75;;;;;;;13.41;29.21;101684.63;4932842;28;20036;-79
2022/03/22 06:31:05;;;;;;;75.00;44.20;;;;;;;13.37;29.42;101683.00;4934267;29;20035;-79
2022/03/22 06:33:31;;;;;;;73.38;43.10;;;;;;;13.14;29.56;101680.03;4934236;29;20058;-80
2022/03/22 06:35:56;;;;;;;73.68;42.22;;;;;;;13.14;29.51;101667.81;4933156;29;20032;-80
2022/03/22 06:38:22;;;;;;;72.75;45.70;;;;;;;14.11;28.28;101678.34;4934393;29;20032;-79
2022/03/22 06:40:49;;;;;;;75.20;45.25;;;;;;;14.87;27.23;101667.31;4934035;29;20051;-80
2022/03/22 06:43:15;;;;;;;77.85;44.50;;;;;;;14.74;27.03;101674.72;4936039;29;20091;-80
2022/03/22 06:45:42;;;;;;;71.90;44.42;;;;;;;14.36;27.66;101668.84;4937620;29;20522;-80
2022/03/22 06:48:07;;;;;;;80.18;48.97;;;;;;;14.25;27.17;101665.72;4937563;29;20028;-80
2022/03/22 06:50:34;;;;;;;74.22;45.83;;;;;;;15.21;26.69;101678.44;4936325;29;20490;-79
2022/03/22 06:52:59;;;;;;;79.40;49.03;;;;;;;15.17;26.28;101670.72;4936296;29;20038;-80
2022/03/22 06:55:25;;;;;;;73.55;47.08;;;;;;;14.98;27.00;101684.44;4937428;29;20035;-80
2022/03/22 06:57:51;;;;;;;77.47;48.08;;;;;;;14.92;26.27;101676.78;4936286;29;20028;-79
2022/03/22 07:00:19;;;;;;;78.70;46.42;;;;;;;15.37;26.42;101678.75;4936084;29;20134;-80
2022/03/22 07:02:45;;;;;;;78.40;47.45;;;;;;;15.51;26.14;101680.06;4935814;29;20027;-81
2022/03/22 07:05:11;;;;;;;76.70;47.05;;;;;;;15.41;25.92;101687.38;4936383;29;20464;-80
2022/03/22 07:07:38;;;;;;;81.55;46.63;;;;;;;16.11;25.48;101689.31;4936118;29;20463;-80
2022/03/22 07:10:09;;;;;;;78.30;46.67;;;;;;;16.88;24.56;101684.59;4937532;29;20034;-80
2022/03/22 07:12:34;;;;;;;72.13;43.90;;;;;;;16.52;24.35;101692.13;4937106;29;20167;-80
2022/03/22 07:15:03;;;;;;;77.65;46.63;;;;;;;17.09;24.74;101688.13;4937300;29;20123;-79
2022/03/22 07:17:29;;;;;;;72.90;45.47;;;;;;;19.54;22.67;101672.34;4935560;28;20032;-80
2022/03/22 07:19:56;;;;;;;68.50;44.33;;;;;;;21.71;20.65;101674.34;4935802;29;20048;-79
2022/03/22 07:22:21;;;;;;;76.95;46.92;;;;;;;21.86;19.64;101681.31;4937093;29;20091;-80
2022/03/22 07:24:46;;;;;;;69.15;44.22;;;;;;;20.57;19.96;101677.44;4935588;29;20030;-79
2022/03/22 07:27:12;;;;;;;74.75;44.85;;;;;;;21.22;20.56;101671.94;4936942;29;20099;-79
2022/03/22 07:29:38;;;;;;;66.45;43.72;;;;;;;23.21;19.27;101684.16;4935451;29;20038;-79
2022/03/22 07:32:04;;;;;;;74.57;46.03;;;;;;;24.54;17.43;101676.66;4935520;29;20035;-79
2022/03/22 07:34:29;;;;;;;68.85;46.00;;;;;;;25.52;16.17;101686.13;4936832;29;20067;-79
2022/03/22 07:36:55;;;;;;;68.63;44.67;;;;;;;27.07;15.51;101669.19;4936931;29;20435;-80
2022/03/22 07:39:22;;;;;;;69.90;43.53;;;;;;;28.13;14.23;101660.06;4935565;29;20028;-80
2022/03/22 07:41:48;;;;;;;67.22;41.70;;;;;;;28.90;13.98;101686.16;4934997;28;20031;-78
2022/03/22 07:44:15;;;;;;;62.63;42.72;;;;;;;29.63;13.38;101683.88;4936754;29;20038;-78
2022/03/22 07:46:42;;;;;;;67.30;42.00;;;;;;;29.76;12.56;101683.53;4936256;29;20038;-80
2022/03/22 07:54:36;;;;;;;56.33;40.17;;;;;;;25.69;14.82;101679.47;4935959;29;20074;-77
2022/03/22 07:57:02;;;;;;;63.88;41.15;;;;;;;23.29;16.46;101683.63;4936280;29;20055;-76
2022/03/22 07:59:28;;;;;;;68.10;43.58;;;;;;;20.93;18.34;101695.69;4935981;29;20498;-76
2022/03/22 08:01:54;;;;;;;63.47;42.65;;;;;;;19.07;20.10;101669.47;4936382;29;20110;-75
2022/03/22 08:04:20;;;;;;;68.57;44.83;;;;;;;18.14;21.26;101685.34;4936332;29;20026;-76
2022/03/22 08:06:45;;;;;;;62.67;41.75;;;;;;;16.93;22.14;101703.69;4936050;29;20032;-76
2022/03/22 08:09:11;;;;;;;62.17;40.85;;;;;;;16.33;22.96;101689.38;4936224;29;20459;-75
2022/03/22 08:11:36;;;;;;;65.63;42.35;;;;;;;15.85;23.81;101687.66;4935202;29;20038;-75
2022/03/22 08:14:04;;;;;;;69.80;42.42;;;;;;;15.37;24.29;101705.00;4936079;29;20057;-75
2022/03/22 08:16:30;;;;;;;66.60;41.20;;;;;;;14.89;25.23;101689.13;4935875;29;20032;-75
2022/03/22 08:18:55;;;;;;;69.20;43.33;;;;;;;14.26;25.90;101684.91;4935970;29;20041;-76
2022/03/22 08:21:21;;;;;;;69.93;43.65;;;;;;;14.07;26.15;101689.81;4936009;29;20032;-76
2022/03/22 08:23:47;;;;;;;62.65;41.30;;;;;;;13.98;26.45;101699.66;4935582;29;20027;-75
2022/03/22 08:26:13;;;;;;;66.45;42.53;;;;;;;13.62;26.97;101684.97;4935381;29;20039;-75
2022/03/22 08:28:39;;;;;;;61.72;39.28;;;;;;;13.58;27.33;101702.50;4935758;29;20023;-75
2022/03/22 08:31:04;;;;;;;62.20;38.78;;;;;;;13.51;27.85;101684.38;4936252;29;20353;-75
2022/03/22 08:33:30;;;;;;;67.20;41.17;;;;;;;13.59;28.06;101693.75;4935612;29;20422;-74
2022/03/22 08:35:55;;;;;;;60.40;39.67;;;;;;;13.60;28.46;101689.38;4935903;29;20071;-75
2022/03/22 08:38:21;;;;;;;62.63;38.38;;;;;;;13.46;28.04;101687.13;4935714;29;20026;-74
2022/03/22 08:40:51;;;;;;;68.30;39.47;;;;;;;13.37;28.33;101671.66;4935305;29;20039;-74
2022/03/22 08:43:19;;;;;;;61.00;38.42;;;;;;;13.49;28.32;101692.28;4935654;29;20500;-75
2022/03/22 08:45:45;;;;;;;63.88;38.13;;;;;;;13.51;28.79;101684.38;4935343;29;20436;-76
2022/03/22 08:48:12;;;;;;;66.32;41.97;;;;;;;13.46;28.82;101695.84;4935627;29;20074;-76
2022/03/22 08:50:39;;;;;;;68.22;40.40;;;;;;;13.22;28.88;101693.81;4935323;29;20028;-75
2022/03/22 08:53:06;;;;;;;64.93;39.85;;;;;;;13.05;28.88;101691.59;4935416;29;20082;-75
2022/03/22 08:55:32;;;;;;;63.58;38.42;;;;;;;12.98;29.23;101696.13;4935145;29;20034;-75
2022/03/22 08:58:04;;;;;;;54.72;35.65;;;;;;;12.94;29.09;101691.88;4935525;29;20024;-74
2022/03/22 09:00:30;;;;;;;58.63;37.53;;;;;;;12.79;29.50;101683.53;4935374;29;20032;-74
2022/03/22 09:02:56;;;;;;;63.55;39.47;;;;;;;12.71;29.75;101674.09;4935068;29;20034;-74
2022/03/22 09:08:08;;;;;;;59.15;36.65;;;;;;;12.66;30.14;101680.34;4935207;29;20698;-75
2022/03/22 09:10:35;;;;;;;61.03;38.75;;;;;;;12.62;30.28;101683.91;4933778;29;20032;-74
2022/03/22 09:13:01;;;;;;;58.92;37.55;;;;;;;12.38;30.77;101646.97;4970607;28;20054;-74
2022/03/22 09:15:28;;;;;;;62.53;38.80;;;;;;;12.47;30.67;101666.78;4971151;28;20050;-75
2022/03/22 09:17:57;;;;;;;60.00;38.15;;;;;;;12.51;30.91;101654.53;4970852;28;20047;-74
2022/03/22 09:20:24;;;;;;;52.28;35.38;;;;;;;12.58;30.79;101654.34;4970899;28;20034;-74
2022/03/22 09:22:51;;;;;;;57.05;33.92;;;;;;;12.65;29.83;101666.41;4970454;28;20125;-74
2022/03/22 09:25:18;;;;;;;62.20;36.67;;;;;;;12.57;30.10;101662.25;4968398;28;20030;-75
2022/03/22 09:27:44;;;;;;;58.15;35.50;;;;;;;12.59;30.73;101657.81;4951288;29;20037;-74
2022/03/22 09:30:11;;;;;;;51.53;32.75;;;;;;;12.68;29.91;101657.59;4951633;29;20027;-74
2022/03/22 09:32:38;;;;;;;53.95;33.78;;;;;;;12.75;30.13;101672.28;4951226;29;20043;-74
2022/03/22 09:35:10;;;;;;;50.58;32.20;;;;;;;12.85;30.20;101668.56;4951538;29;20031;-75
2022/03/22 09:37:39;;;;;;;53.03;32.88;;;;;;;12.98;29.42;101661.28;4951337;28;20047;-74
2022/03/22 09:40:06;;;;;;;54.67;32.50;;;;;;;12.94;29.82;101647.41;4935367;29;20118;-74
2022/03/22 09:42:31;;;;;;;49.63;32.00;;;;;;;13.09;30.01;101654.00;4951306;29;20039;-75
2022/03/22 09:45:00;;;;;;;51.28;34.30;;;;;;;13.14;29.19;101648.66;4936173;29;20392;-74
2022/03/22 09:47:29;;;;;;;55.75;33.88;;;;;;;13.05;29.07;101644.50;4934593;29;20035;-76
2022/03/22 09:49:58;;;;;;;38.53;26.80;;;;;;;12.99;28.33;101640.31;4934870;29;20031;-75
2022/03/22 09:52:23;;;;;;;48.15;30.83;;;;;;;13.01;28.83;101648.09;4934744;29;20099;-75
2022/03/22 09:54:49;;;;;;;50.42;29.33;;;;;;;12.95;28.32;101635.19;4934474;29;20473;-75
2022/03/22 09:57:16;;;;;;;42.65;26.63;;;;;;;13.09;28.23;101650.53;4933336;29;20035;-77
2022/03/22 09:59:42;;;;;;;43.03;27.23;;;;;;;13.11;27.78;101646.13;4934183;29;20468;-78
2022/03/22 10:02:08;;;;;;;41.28;26.23;;;;;;;13.10;28.04;101645.25;4934513;29;20115;-77
2022/03/22 10:04:41;;;;;;;40.47;27.05;;;;;;;13.17;27.86;101641.59;4934559;29;20551;-77
2022/03/22 10:07:08;;;;;;;42.13;27.67;;;;;;;13.22;27.94;101634.50;4933276;29;20032;-78
2022/03/22 10:09:36;;;;;;;46.72;26.45;;;;;;;13.30;28.28;101626.47;4934525;29;20126;-79
2022/03/22 10:12:03;;;;;;;39.90;25.08;;;;;;;13.41;28.41;101626.19;4934477;29;20036;-76
2022/03/22 10:14:36;;;;;;;35.17;23.13;;;;;;;13.64;27.03;101649.97;4934546;29;20047;-76
2022/03/22 10:17:17;;;;;;;34.03;23.77;;;;;;;13.59;26.83;101641.38;4936218;29;20031;-76
2022/03/22 10:19:49;;;;;;;36.17;24.70;;;;;;;13.60;27.37;101637.84;4938141;29;20091;-76
2022/03/22 10:22:15;;;;;;;39.03;25.38;;;;;;;13.65;27.46;101640.34;4938339;29;20031;-78
2022/03/22 10:24:49;;;;;;;47.53;27.45;;;;;;;13.71;26.94;101643.66;4937440;29;20391;-77
2022/03/22 10:27:34;;;;;;;41.30;24.95;;;;;;;13.65;26.59;101638.63;4937001;29;20051;-78
2022/03/22 10:30:03;;;;;;;35.45;24.52;;;;;;;13.68;26.66;101635.88;4936567;29;20122;-78
2022/03/22 10:32:33;;;;;;;34.88;23.27;;;;;;;13.77;26.52;101626.06;4936611;29;20028;-79
2022/03/22 10:35:30;;;;;;;35.30;23.80;;;;;;;13.85;25.86;101624.09;4936545;28;20042;-78
2022/03/22 10:37:57;;;;;;;29.95;21.48;;;;;;;13.75;24.96;101622.66;4897558;29;20048;-78
2022/03/22 10:40:24;;;;;;;34.67;23.65;;;;;;;13.81;25.13;101628.53;4881971;29;20045;-78
2022/03/22 10:42:52;;;;;;;42.70;25.30;;;;;;;13.87;25.70;101624.91;4897336;29;20036;-78
2022/03/22 10:45:17;;;;;;;36.33;23.25;;;;;;;13.90;25.38;101620.41;4897764;29;20733;-78
2022/03/22 10:47:43;;;;;;;32.53;21.25;;;;;;;13.98;25.26;101612.34;4897798;29;20032;-79
2022/03/22 10:50:09;;;;;;;33.90;22.83;;;;;;;14.06;24.13;101615.59;4897601;29;20056;-80
2022/03/22 10:52:48;;;;;;;28.08;19.20;;;;;;;14.04;23.78;101614.81;4897572;29;20054;-78
2022/03/22 10:55:19;;;;;;;26.65;17.98;;;;;;;13.96;23.32;101599.31;4881797;29;20040;-78
2022/03/22 10:57:47;;;;;;;29.48;20.65;;;;;;;14.02;23.95;101592.16;4897137;29;20092;-79
2022/03/22 11:00:13;;;;;;;36.53;21.67;;;;;;;14.09;24.38;101604.19;4881361;29;20043;-79
2022/03/22 11:02:39;;;;;;;38.45;23.13;;;;;;;14.19;23.74;101613.47;4896963;29;20045;-79
2022/03/22 11:05:07;;;;;;;37.42;25.50;;;;;;;14.17;24.56;101605.66;4881520;29;20520;-80
2022/03/22 11:07:35;;;;;;;32.42;20.90;;;;;;;14.19;22.92;101593.34;4881448;29;20040;-79
2022/03/22 11:10:01;;;;;;;31.90;21.80;;;;;;;14.16;23.86;101585.63;4881229;29;20393;-79
2022/03/22 11:12:27;;;;;;;33.80;23.08;;;;;;;14.33;24.14;101600.81;4897014;29;20535;-79
2022/03/22 11:14:58;;;;;;;38.17;25.52;;;;;;;14.37;24.48;101601.59;4909021;29;20054;-80
2022/03/22 11:17:25;;;;;;;36.10;22.98;;;;;;;14.34;24.06;101581.56;4937463;29;20102;-78
2022/03/22 11:19:51;;;;;;;38.53;24.38;;;;;;;14.39;23.74;101595.38;4937156;29;20024;-77
2022/03/22 11:22:17;;;;;;;35.97;22.88;;;;;;;14.38;23.86;101592.81;4937054;29;20534;-77
2022/03/22 11:24:43;;;;;;;41.80;24.10;;;;;;;14.27;24.56;101563.44;4936932;29;20059;-75
2022/03/22 11:27:10;;;;;;;34.15;22.10;;;;;;;14.32;23.71;101579.88;4937087;29;20032;-75
2022/03/22 11:29:40;;;;;;;31.65;20.75;;;;;;;14.39;23.35;101581.41;4936301;29;20387;-75
2022/03/22 11:34:53;;;;;;;33.38;22.08;;;;;;;14.45;24.22;101565.47;4936951;29;20505;-77
2022/03/22 11:37:40;;;;;;;34.72;23.35;;;;;;;14.64;23.54;101577.13;4936879;29;20020;-81
2022/03/22 11:43:00;;;;;;;29.88;19.80;;;;;;;14.62;23.51;101563.22;4936614;29;20114;-80
2022/03/22 11:45:26;;;;;;;32.85;20.40;;;;;;;14.59;22.95;101541.47;4936782;29;20028;-80
2022/03/22 11:47:54;;;;;;;28.13;20.48;;;;;;;14.66;23.39;101562.22;4935330;29;20456;-79
2022/03/22 11:50:21;;;;;;;32.17;21.85;;;;;;;14.67;22.84;101555.19;4935444;29;20051;-79
2022/03/22 11:52:50;;;;;;;31.98;20.13;;;;;;;14.60;22.79;101533.53;4936760;29;20043;-79